Time;durP1;ratioP1;P1;durP2;ratioP2;P2;SDS_P1;SDS_P2;PMS_P1;PMS_P2;Temp;Humidity;BMP_temperature;BMP_pressure;BME280_temperature;BME280_humidity;BME280_pressure;Samples;Min_cycle;Max_cycle;Signal;HPM_P1;HPM_P2
2020/12/15 00:01:25;;;;;;;5.83;3.50;;;;;;;;;;5090020;28;20467;-75
2020/12/15 00:04:00;;;;;;;4.53;3.37;;;;;;;;;;5097682;28;20456;-73
2020/12/15 00:06:38;;;;;;;6.37;3.70;;;;;;;;;;5087595;28;20517;-74
2020/12/15 00:09:18;;;;;;;5.27;3.43;;;;;;;;;;5088886;28;20509;-75
2020/12/15 00:14:51;;;;;;;7.50;3.43;;;;;;;;;;5073708;28;20796;-73
2020/12/15 00:17:45;;;;;;;5.50;3.90;;;;;;;;;;5085650;28;20500;-74
2020/12/15 00:20:20;;;;;;;6.23;3.90;;;;;;;;;;5086434;28;20537;-73
2020/12/15 00:22:54;;;;;;;4.63;3.50;;;;;;;;;;5084330;28;20791;-74
2020/12/15 00:25:23;;;;;;;4.23;3.53;;;;;;;;;;5093155;28;20451;-74
2020/12/15 00:28:02;;;;;;;5.40;3.37;;;;;;;;;;5092230;28;20460;-74
2020/12/15 00:30:43;;;;;;;6.90;3.60;;;;;;;;;;5096864;28;20670;-76
2020/12/15 00:33:24;;;;;;;5.70;3.70;;;;;;;;;;5081985;28;20630;-75
2020/12/15 00:35:59;;;;;;;6.00;3.57;;;;;;;;;;5097790;28;20713;-74
2020/12/15 00:38:50;;;;;;;5.53;3.60;;;;;;;;;;5089667;28;20502;-74
2020/12/15 00:41:45;;;;;;;;;;;;;;;;;;;;;
2020/12/15 00:44:15;;;;;;;6.43;3.50;;;;;;;;;;5094286;28;20464;-76
2020/12/15 00:46:49;;;;;;;5.00;3.33;;;;;;;;;;5097457;28;20452;-75
2020/12/15 00:49:23;;;;;;;6.20;3.73;;;;;;;;;;5097123;28;20495;-72
2020/12/15 00:51:54;;;;;;;8.83;4.23;;;;;;;;;;5097135;28;20707;-74
2020/12/15 00:54:21;;;;;;;4.83;3.60;;;;;;;;;;5084966;28;20457;-73
2020/12/15 00:56:48;;;;;;;5.53;3.67;;;;;;;;;;5083924;28;20510;-74
2020/12/15 00:59:15;;;;;;;6.17;4.00;;;;;;;;;;5078591;28;21006;-74
2020/12/15 01:01:43;;;;;;;4.90;3.40;;;;;;;;;;5077067;28;20457;-73
2020/12/15 01:04:10;;;;;;;4.53;3.37;;;;;;;;;;5077538;28;20509;-74
2020/12/15 01:06:40;;;;;;;4.40;3.03;;;;;;;;;;5076566;28;20460;-73
2020/12/15 01:09:17;;;;;;;4.60;3.23;;;;;;;;;;5089090;28;20491;-73
2020/12/15 01:12:06;;;;;;;5.30;3.60;;;;;;;;;;5081746;28;20453;-72
2020/12/15 01:14:42;;;;;;;3.73;3.17;;;;;;;;;;5092756;27;20451;-73
2020/12/15 01:17:18;;;;;;;4.07;2.70;;;;;;;;;;5112302;28;20535;-72
2020/12/15 01:20:01;;;;;;;5.90;3.17;;;;;;;;;;5098086;27;20871;-75
2020/12/15 01:22:28;;;;;;;4.77;2.67;;;;;;;;;;5099171;27;20791;-74
2020/12/15 01:24:55;;;;;;;4.03;2.90;;;;;;;;;;5096318;28;20726;-74
2020/12/15 01:27:22;;;;;;;4.33;3.20;;;;;;;;;;5097235;28;20735;-74
2020/12/15 01:29:49;;;;;;;4.80;2.77;;;;;;;;;;5095118;28;20564;-74
2020/12/15 01:32:29;;;;;;;4.30;2.90;;;;;;;;;;5094004;28;20452;-74
2020/12/15 01:34:56;;;;;;;5.57;3.40;;;;;;;;;;5085841;28;20940;-74
2020/12/15 01:37:25;;;;;;;3.30;2.80;;;;;;;;;;5096117;28;20593;-74
2020/12/15 01:39:52;;;;;;;5.37;3.13;;;;;;;;;;5096303;28;20478;-76
2020/12/15 01:42:25;;;;;;;2.93;2.20;;;;;;;;;;5096303;28;20463;-75
2020/12/15 01:44:52;;;;;;;5.67;3.40;;;;;;;;;;5096139;28;20455;-75
2020/12/15 01:47:19;;;;;;;5.13;3.30;;;;;;;;;;5076368;28;20532;-73
2020/12/15 01:49:49;;;;;;;3.67;2.33;;;;;;;;;;5076730;28;20590;-75
2020/12/15 01:52:17;;;;;;;7.23;2.80;;;;;;;;;;5095139;28;20738;-75
2020/12/15 01:54:45;;;;;;;3.83;2.50;;;;;;;;;;5096155;28;20444;-74
2020/12/15 01:57:12;;;;;;;3.37;2.57;;;;;;;;;;5096044;28;20460;-75
2020/12/15 01:59:39;;;;;;;7.63;3.10;;;;;;;;;;5096001;28;20455;-74
2020/12/15 02:02:06;;;;;;;3.87;3.47;;;;;;;;;;5095756;28;20764;-74
2020/12/15 02:04:33;;;;;;;4.30;3.00;;;;;;;;;;5095690;28;20451;-74
2020/12/15 02:07:01;;;;;;;5.17;3.20;;;;;;;;;;5095614;28;20452;-74
2020/12/15 02:09:29;;;;;;;5.40;3.20;;;;;;;;;;5095792;28;20498;-74
2020/12/15 02:11:57;;;;;;;4.20;2.70;;;;;;;;;;5095590;28;20444;-74
2020/12/15 02:14:24;;;;;;;5.27;3.40;;;;;;;;;;5096179;28;20471;-74
2020/12/15 02:16:57;;;;;;;4.57;3.27;;;;;;;;;;5095326;28;20448;-74
2020/12/15 02:19:24;;;;;;;4.27;3.10;;;;;;;;;;5077795;28;20479;-74
2020/12/15 02:21:55;;;;;;;4.77;3.00;;;;;;;;;;5075587;28;20448;-75
2020/12/15 02:24:22;;;;;;;4.70;2.97;;;;;;;;;;5093286;28;20460;-75
2020/12/15 02:26:49;;;;;;;4.70;2.70;;;;;;;;;;5096220;28;20460;-74
2020/12/15 02:29:17;;;;;;;4.17;3.30;;;;;;;;;;5095788;28;21200;-74
2020/12/15 02:31:44;;;;;;;5.30;3.37;;;;;;;;;;5095709;28;20562;-74
2020/12/15 02:34:11;;;;;;;3.93;2.77;;;;;;;;;;5095508;28;20451;-75
2020/12/15 02:36:38;;;;;;;5.53;3.80;;;;;;;;;;5096151;28;20444;-74
2020/12/15 02:39:07;;;;;;;4.80;3.43;;;;;;;;;;5095416;28;20525;-74
2020/12/15 02:41:34;;;;;;;6.83;3.77;;;;;;;;;;5097705;28;20467;-74
2020/12/15 02:44:01;;;;;;;4.47;3.20;;;;;;;;;;5099315;28;20456;-74
2020/12/15 02:46:33;;;;;;;5.53;3.60;;;;;;;;;;5098983;28;20456;-75
2020/12/15 02:49:00;;;;;;;4.50;3.50;;;;;;;;;;5098947;28;20807;-75
2020/12/15 02:51:27;;;;;;;5.30;3.37;;;;;;;;;;5084557;28;20456;-75
2020/12/15 02:53:54;;;;;;;7.30;3.63;;;;;;;;;;5079044;28;20716;-74
2020/12/15 02:56:23;;;;;;;6.53;4.23;;;;;;;;;;5078012;28;20461;-74
2020/12/15 02:58:53;;;;;;;5.53;3.40;;;;;;;;;;5078572;28;20461;-75
2020/12/15 03:01:20;;;;;;;6.17;3.73;;;;;;;;;;5077612;28;20457;-74
2020/12/15 03:03:47;;;;;;;4.33;3.60;;;;;;;;;;5078285;28;20449;-74
2020/12/15 03:06:15;;;;;;;4.37;3.30;;;;;;;;;;5078661;28;20542;-74
2020/12/15 03:08:42;;;;;;;5.10;4.30;;;;;;;;;;5078674;28;20484;-74
2020/12/15 03:11:09;;;;;;;5.10;4.00;;;;;;;;;;5093111;28;20467;-74
2020/12/15 03:13:37;;;;;;;4.83;3.40;;;;;;;;;;5098540;28;20456;-74
2020/12/15 03:16:04;;;;;;;4.23;3.40;;;;;;;;;;5093232;28;20821;-74
2020/12/15 03:18:31;;;;;;;5.87;3.47;;;;;;;;;;5091927;28;20459;-74
2020/12/15 03:21:01;;;;;;;4.13;3.33;;;;;;;;;;5098374;28;20459;-74
2020/12/15 03:23:28;;;;;;;4.50;3.83;;;;;;;;;;5095523;28;20814;-74
2020/12/15 03:25:55;;;;;;;4.93;4.23;;;;;;;;;;5077712;28;20460;-74
2020/12/15 03:28:22;;;;;;;5.00;3.53;;;;;;;;;;5077932;28;21172;-74
2020/12/15 03:30:50;;;;;;;4.73;3.27;;;;;;;;;;5078373;28;20735;-74
2020/12/15 03:33:21;;;;;;;5.27;3.53;;;;;;;;;;5077808;28;20518;-74
2020/12/15 03:35:48;;;;;;;4.70;3.40;;;;;;;;;;5077919;28;20450;-74
2020/12/15 03:38:18;;;;;;;4.97;3.67;;;;;;;;;;5078515;28;20479;-74
2020/12/15 03:40:45;;;;;;;5.80;4.30;;;;;;;;;;5077673;28;20465;-74
2020/12/15 03:43:13;;;;;;;4.57;3.20;;;;;;;;;;5077552;28;20476;-74
2020/12/15 03:45:43;;;;;;;4.20;2.87;;;;;;;;;;5096358;28;20712;-74
2020/12/15 03:48:11;;;;;;;4.70;3.70;;;;;;;;;;5097189;28;20554;-74
2020/12/15 03:50:38;;;;;;;4.80;3.40;;;;;;;;;;5095669;28;20472;-75
2020/12/15 03:53:05;;;;;;;5.60;3.60;;;;;;;;;;5097036;28;20444;-74
2020/12/15 03:55:32;;;;;;;4.90;3.83;;;;;;;;;;5078960;28;20457;-74
2020/12/15 03:58:01;;;;;;;6.40;4.90;;;;;;;;;;5077686;28;20445;-74
2020/12/15 04:00:29;;;;;;;4.87;4.30;;;;;;;;;;5078310;28;20547;-74
2020/12/15 04:02:56;;;;;;;6.03;4.40;;;;;;;;;;5077943;28;20448;-75
2020/12/15 04:05:24;;;;;;;5.20;4.00;;;;;;;;;;5093995;28;20456;-74
2020/12/15 04:07:51;;;;;;;5.40;4.50;;;;;;;;;;5097709;28;20467;-74
2020/12/15 04:10:20;;;;;;;4.23;3.67;;;;;;;;;;5097469;28;20455;-74
2020/12/15 04:12:47;;;;;;;6.90;4.10;;;;;;;;;;5097039;28;20456;-74
2020/12/15 04:15:14;;;;;;;6.00;4.17;;;;;;;;;;5084309;28;20743;-74
2020/12/15 04:17:41;;;;;;;5.17;4.13;;;;;;;;;;5076749;28;20458;-74
2020/12/15 04:20:08;;;;;;;5.10;3.60;;;;;;;;;;5077237;28;20496;-74
2020/12/15 04:22:36;;;;;;;4.67;3.97;;;;;;;;;;5077144;28;20865;-74
2020/12/15 04:25:04;;;;;;;4.60;4.10;;;;;;;;;;5080239;28;20808;-74
2020/12/15 04:27:33;;;;;;;6.30;4.17;;;;;;;;;;5077421;28;20903;-74
2020/12/15 04:30:00;;;;;;;6.40;3.80;;;;;;;;;;5077372;28;20934;-74
2020/12/15 04:32:27;;;;;;;5.80;4.30;;;;;;;;;;5096547;28;20475;-73
2020/12/15 04:34:57;;;;;;;4.90;4.40;;;;;;;;;;5090039;28;20554;-74
2020/12/15 04:37:27;;;;;;;5.53;4.37;;;;;;;;;;5076923;28;20468;-75
2020/12/15 04:39:55;;;;;;;5.30;4.20;;;;;;;;;;5077000;28;20453;-75
2020/12/15 04:42:23;;;;;;;6.03;4.33;;;;;;;;;;5095333;28;20464;-75
2020/12/15 04:44:52;;;;;;;6.10;4.37;;;;;;;;;;5097450;28;20531;-75
2020/12/15 04:47:23;;;;;;;6.67;4.43;;;;;;;;;;5078268;28;20461;-74
2020/12/15 04:49:56;;;;;;;7.03;4.60;;;;;;;;;;5080855;28;20481;-74
2020/12/15 04:52:27;;;;;;;5.70;4.10;;;;;;;;;;5098365;28;20514;-74
2020/12/15 04:54:55;;;;;;;6.70;5.10;;;;;;;;;;5096847;28;20470;-74
2020/12/15 04:57:23;;;;;;;5.80;4.53;;;;;;;;;;5095381;28;20455;-74
2020/12/15 04:59:52;;;;;;;8.93;5.67;;;;;;;;;;5096412;28;20546;-74
2020/12/15 05:02:20;;;;;;;6.80;5.43;;;;;;;;;;5095463;28;20466;-75
2020/12/15 05:04:47;;;;;;;7.13;5.77;;;;;;;;;;5079899;28;20480;-75
2020/12/15 05:07:14;;;;;;;5.70;5.10;;;;;;;;;;5076504;28;20460;-74
2020/12/15 05:09:43;;;;;;;7.87;5.90;;;;;;;;;;5076009;28;20912;-74
2020/12/15 05:12:13;;;;;;;8.03;5.80;;;;;;;;;;5076411;28;20453;-75
2020/12/15 05:14:40;;;;;;;6.43;4.93;;;;;;;;;;5087709;28;20441;-75
2020/12/15 05:17:08;;;;;;;7.97;6.47;;;;;;;;;;5096535;28;20456;-74
2020/12/15 05:19:46;;;;;;;11.83;7.07;;;;;;;;;;5095979;28;20452;-75
2020/12/15 05:22:13;;;;;;;9.50;5.83;;;;;;;;;;5094529;28;20465;-74
2020/12/15 05:24:46;;;;;;;8.40;5.93;;;;;;;;;;5076392;28;20782;-74
2020/12/15 05:27:16;;;;;;;8.37;6.60;;;;;;;;;;5075716;28;20457;-74
2020/12/15 05:29:43;;;;;;;8.67;6.70;;;;;;;;;;5076242;28;20550;-75
2020/12/15 05:32:11;;;;;;;9.17;7.23;;;;;;;;;;5079785;28;20457;-75
2020/12/15 05:34:38;;;;;;;8.50;6.70;;;;;;;;;;5089293;28;20484;-74
2020/12/15 05:37:07;;;;;;;8.07;6.80;;;;;;;;;;5107269;28;20755;-74
2020/12/15 05:39:34;;;;;;;8.50;6.90;;;;;;;;;;5094884;28;20440;-74
2020/12/15 05:42:02;;;;;;;9.67;8.03;;;;;;;;;;5095572;28;20462;-74
2020/12/15 05:44:31;;;;;;;14.43;8.47;;;;;;;;;;5095528;28;20879;-74
2020/12/15 05:47:02;;;;;;;10.97;8.63;;;;;;;;;;5095477;28;20933;-73
2020/12/15 05:49:30;;;;;;;9.37;7.60;;;;;;;;;;5095951;28;21053;-73
2020/12/15 05:51:57;;;;;;;9.97;7.40;;;;;;;;;;5095781;28;20490;-74
2020/12/15 05:54:24;;;;;;;10.67;8.60;;;;;;;;;;5095685;28;20448;-75
2020/12/15 05:57:01;;;;;;;10.00;7.50;;;;;;;;;;5093797;28;20548;-74
2020/12/15 05:59:28;;;;;;;10.53;8.93;;;;;;;;;;5075458;28;20456;-74
2020/12/15 06:02:04;;;;;;;10.30;7.87;;;;;;;;;;5075968;28;20457;-74
2020/12/15 06:04:40;;;;;;;12.13;9.00;;;;;;;;;;5075314;28;20481;-74
2020/12/15 06:07:07;;;;;;;10.80;7.80;;;;;;;;;;5075070;28;20457;-74
2020/12/15 06:09:36;;;;;;;10.03;8.77;;;;;;;;;;5075261;28;20515;-74
2020/12/15 06:12:03;;;;;;;13.17;9.17;;;;;;;;;;5074878;28;20472;-75
2020/12/15 06:14:31;;;;;;;10.90;8.40;;;;;;;;;;5074818;28;20540;-75
2020/12/15 06:17:01;;;;;;;10.47;8.67;;;;;;;;;;5077979;28;20460;-74
2020/12/15 06:19:30;;;;;;;10.33;8.90;;;;;;;;;;5078074;28;20484;-75
2020/12/15 06:21:58;;;;;;;11.23;9.47;;;;;;;;;;5077792;28;20456;-73
2020/12/15 06:24:26;;;;;;;12.80;9.40;;;;;;;;;;5077855;28;20455;-74
2020/12/15 06:26:58;;;;;;;11.20;9.27;;;;;;;;;;5078408;28;20464;-74
2020/12/15 06:29:39;;;;;;;15.70;10.07;;;;;;;;;;5077625;28;20483;-73
2020/12/15 06:32:10;;;;;;;11.70;9.60;;;;;;;;;;5077919;28;20464;-74
2020/12/15 06:34:39;;;;;;;11.10;9.10;;;;;;;;;;5077158;28;20461;-73
2020/12/15 06:37:07;;;;;;;13.87;10.27;;;;;;;;;;5077954;28;20483;-73
2020/12/15 06:39:38;;;;;;;12.70;9.70;;;;;;;;;;5077785;28;20460;-73
2020/12/15 06:42:08;;;;;;;14.57;11.10;;;;;;;;;;5077631;28;20449;-73
2020/12/15 06:44:36;;;;;;;13.00;10.03;;;;;;;;;;5077247;28;20780;-73
2020/12/15 06:47:04;;;;;;;13.57;9.80;;;;;;;;;;5081441;28;20547;-73
2020/12/15 06:49:33;;;;;;;14.97;11.03;;;;;;;;;;5080589;28;20578;-73
2020/12/15 06:52:01;;;;;;;13.67;11.27;;;;;;;;;;5077704;28;20737;-73
2020/12/15 06:54:29;;;;;;;14.80;10.97;;;;;;;;;;5085081;28;20458;-73
2020/12/15 06:57:04;;;;;;;13.40;10.13;;;;;;;;;;5116381;27;20790;-74
2020/12/15 06:59:35;;;;;;;13.00;11.00;;;;;;;;;;5090206;28;20525;-73
2020/12/15 07:02:09;;;;;;;16.03;11.03;;;;;;;;;;5096695;28;20794;-74
2020/12/15 07:04:41;;;;;;;14.20;11.77;;;;;;;;;;5096466;28;20447;-74
2020/12/15 07:07:11;;;;;;;12.90;11.03;;;;;;;;;;5096066;28;20523;-73
2020/12/15 07:09:44;;;;;;;14.20;11.27;;;;;;;;;;5080042;28;20484;-75
2020/12/15 07:12:12;;;;;;;13.77;10.80;;;;;;;;;;5075456;28;20453;-74
2020/12/15 07:14:39;;;;;;;15.17;11.30;;;;;;;;;;5075366;28;20483;-73
2020/12/15 07:17:12;;;;;;;12.90;10.50;;;;;;;;;;5081361;28;20460;-74
2020/12/15 07:19:41;;;;;;;16.20;11.47;;;;;;;;;;5076522;28;20456;-75
2020/12/15 07:22:10;;;;;;;13.37;11.20;;;;;;;;;;5076767;28;20864;-74
2020/12/15 07:24:39;;;;;;;14.63;11.33;;;;;;;;;;5076519;28;20453;-74
2020/12/15 07:27:10;;;;;;;15.13;11.80;;;;;;;;;;5075060;28;20468;-74
2020/12/15 07:29:37;;;;;;;14.53;10.17;;;;;;;;;;5076033;28;20558;-73
2020/12/15 07:32:05;;;;;;;13.60;10.83;;;;;;;;;;5092652;28;20543;-74
2020/12/15 07:34:33;;;;;;;16.00;12.10;;;;;;;;;;5091366;28;20452;-74
2020/12/15 07:37:03;;;;;;;14.90;12.10;;;;;;;;;;5076606;28;20457;-74
2020/12/15 07:39:35;;;;;;;12.63;11.20;;;;;;;;;;5077267;28;20798;-74
2020/12/15 07:42:03;;;;;;;12.50;11.20;;;;;;;;;;5087364;28;20754;-72
2020/12/15 07:44:32;;;;;;;17.47;11.97;;;;;;;;;;5084450;28;20455;-74
2020/12/15 07:47:15;;;;;;;12.47;10.93;;;;;;;;;;5082814;28;20472;-73
2020/12/15 07:49:54;;;;;;;17.50;12.03;;;;;;;;;;5077614;28;20476;-73
2020/12/15 07:52:32;;;;;;;16.30;10.07;;;;;;;;;;5075504;28;20457;-74
2020/12/15 07:55:21;;;;;;;14.07;10.60;;;;;;;;;;5075741;28;20468;-74
2020/12/15 07:57:48;;;;;;;12.97;10.57;;;;;;;;;;5076374;28;20556;-74
2020/12/15 08:00:17;;;;;;;16.23;10.53;;;;;;;;;;5079906;28;20580;-75
2020/12/15 08:02:47;;;;;;;15.23;10.43;;;;;;;;;;5096086;28;20510;-74
2020/12/15 08:05:19;;;;;;;15.03;11.03;;;;;;;;;;5090978;28;20502;-74
2020/12/15 08:07:48;;;;;;;15.40;10.43;;;;;;;;;;5076054;28;20461;-73
2020/12/15 08:10:16;;;;;;;13.30;10.30;;;;;;;;;;5076903;28;20892;-73
2020/12/15 08:12:44;;;;;;;12.80;10.53;;;;;;;;;;5075607;28;20526;-73
2020/12/15 08:15:14;;;;;;;13.50;11.03;;;;;;;;;;5076747;28;20738;-74
2020/12/15 08:17:41;;;;;;;14.60;11.00;;;;;;;;;;5076235;28;20457;-73
2020/12/15 08:20:10;;;;;;;13.50;11.10;;;;;;;;;;5076737;28;20476;-74
2020/12/15 08:22:41;;;;;;;11.57;9.50;;;;;;;;;;5093103;28;20549;-73
2020/12/15 08:25:16;;;;;;;13.50;10.60;;;;;;;;;;5091942;28;20657;-74
2020/12/15 08:27:46;;;;;;;12.43;9.83;;;;;;;;;;5095630;28;20614;-73
2020/12/15 08:30:14;;;;;;;14.00;10.00;;;;;;;;;;5095801;28;20606;-73
2020/12/15 08:32:48;;;;;;;14.27;9.27;;;;;;;;;;5094231;28;20456;-74
2020/12/15 08:35:37;;;;;;;15.30;12.53;;;;;;;;;;5094763;28;20444;-74
2020/12/15 08:38:07;;;;;;;11.80;9.90;;;;;;;;;;5097220;28;20452;-74
2020/12/15 08:40:35;;;;;;;14.70;11.13;;;;;;;;;;5084348;28;20456;-74
2020/12/15 08:43:08;;;;;;;11.20;9.90;;;;;;;;;;5090686;28;20847;-74
2020/12/15 08:45:38;;;;;;;14.27;9.40;;;;;;;;;;5082716;28;20448;-73
2020/12/15 08:48:06;;;;;;;13.73;9.27;;;;;;;;;;5078888;28;21136;-73
2020/12/15 08:50:33;;;;;;;14.70;10.03;;;;;;;;;;5085419;28;20484;-73
2020/12/15 08:53:07;;;;;;;13.37;9.90;;;;;;;;;;5095401;28;20551;-73
2020/12/15 08:58:43;;;;;;;12.00;8.60;;;;;;;;;;5084902;28;20877;-73
2020/12/15 09:07:50;;;;;;;14.97;10.37;;;;;;;;;;5070734;28;20525;-74
2020/12/15 09:10:23;;;;;;;11.20;8.60;;;;;;;;;;5092007;28;20499;-73
2020/12/15 09:12:51;;;;;;;12.17;9.30;;;;;;;;;;5095172;28;20724;-73
2020/12/15 09:15:18;;;;;;;11.67;9.00;;;;;;;;;;5094104;28;20946;-72
2020/12/15 09:17:50;;;;;;;12.50;9.23;;;;;;;;;;5081924;28;20470;-73
2020/12/15 09:20:24;;;;;;;12.17;8.60;;;;;;;;;;5094791;28;20485;-74
2020/12/15 09:22:55;;;;;;;11.67;8.47;;;;;;;;;;5095414;28;20448;-73
2020/12/15 09:25:22;;;;;;;10.50;8.90;;;;;;;;;;5095439;28;20451;-73
2020/12/15 09:27:54;;;;;;;9.60;7.97;;;;;;;;;;5095834;28;20448;-73
2020/12/15 09:30:26;;;;;;;12.20;7.90;;;;;;;;;;5085296;28;20492;-73
2020/12/15 09:32:54;;;;;;;12.40;10.70;;;;;;;;;;5073960;28;20445;-72
2020/12/15 09:35:28;;;;;;;13.43;8.53;;;;;;;;;;5077408;28;20757;-72
2020/12/15 09:37:55;;;;;;;9.17;7.97;;;;;;;;;;5095036;28;20459;-72
2020/12/15 09:40:23;;;;;;;13.73;8.93;;;;;;;;;;5093802;28;20452;-73
2020/12/15 09:42:55;;;;;;;10.50;8.47;;;;;;;;;;5092949;28;20443;-72
2020/12/15 09:45:26;;;;;;;10.23;8.00;;;;;;;;;;5085100;28;20756;-72
2020/12/15 09:48:02;;;;;;;13.47;8.53;;;;;;;;;;5092018;28;20483;-73
2020/12/15 09:50:34;;;;;;;10.03;7.77;;;;;;;;;;5097026;28;20484;-72
2020/12/15 09:53:02;;;;;;;11.23;8.87;;;;;;;;;;5099151;28;20455;-73
2020/12/15 09:55:36;;;;;;;12.23;8.47;;;;;;;;;;5090676;28;20516;-73
2020/12/15 09:58:09;;;;;;;10.80;8.97;;;;;;;;;;5077548;28;20543;-73
2020/12/15 10:00:39;;;;;;;9.83;7.60;;;;;;;;;;5077826;28;20492;-73
2020/12/15 10:03:09;;;;;;;14.90;8.27;;;;;;;;;;5077074;28;20448;-72
2020/12/15 10:05:37;;;;;;;10.33;8.10;;;;;;;;;;5076149;28;20461;-73
2020/12/15 10:08:24;;;;;;;13.63;8.33;;;;;;;;;;5076828;28;20491;-73
2020/12/15 10:10:53;;;;;;;9.83;7.10;;;;;;;;;;5051019;28;20809;-73
2020/12/15 10:13:21;;;;;;;10.33;8.10;;;;;;;;;;5076546;28;20551;-73
2020/12/15 10:15:50;;;;;;;10.07;7.33;;;;;;;;;;5075852;28;20530;-73
2020/12/15 10:18:20;;;;;;;8.67;7.77;;;;;;;;;;5076069;28;20454;-72
2020/12/15 10:20:48;;;;;;;7.60;6.07;;;;;;;;;;5077806;28;21073;-73
2020/12/15 10:23:18;;;;;;;10.67;7.03;;;;;;;;;;5093346;28;20489;-73
2020/12/15 10:25:54;;;;;;;9.30;7.13;;;;;;;;;;5096695;28;20460;-72
2020/12/15 10:28:21;;;;;;;9.10;6.63;;;;;;;;;;5090688;28;20505;-72
2020/12/15 10:30:54;;;;;;;14.20;7.43;;;;;;;;;;5080029;28;20457;-73
2020/12/15 10:33:31;;;;;;;8.23;6.60;;;;;;;;;;5081188;28;20445;-73
2020/12/15 10:36:02;;;;;;;9.67;7.23;;;;;;;;;;5085356;28;20456;-73
2020/12/15 10:38:32;;;;;;;11.30;8.17;;;;;;;;;;5086119;28;20455;-73
2020/12/15 10:41:02;;;;;;;11.03;7.53;;;;;;;;;;5081564;28;20465;-73
2020/12/15 10:43:34;;;;;;;8.70;6.60;;;;;;;;;;5096446;28;20447;-74
2020/12/15 10:46:02;;;;;;;7.50;6.30;;;;;;;;;;5097154;28;20460;-73
2020/12/15 10:48:47;;;;;;;7.93;6.50;;;;;;;;;;5096432;28;20444;-73
2020/12/15 10:51:22;;;;;;;9.43;6.40;;;;;;;;;;5081343;28;20942;-73
2020/12/15 10:53:51;;;;;;;8.23;6.30;;;;;;;;;;5082618;28;20463;-73
2020/12/15 10:56:18;;;;;;;7.53;6.10;;;;;;;;;;5086073;28;20444;-75
2020/12/15 10:58:49;;;;;;;8.60;6.40;;;;;;;;;;5092305;28;20496;-73
2020/12/15 11:01:20;;;;;;;7.30;5.67;;;;;;;;;;5083155;28;20856;-73
2020/12/15 11:03:47;;;;;;;8.90;6.20;;;;;;;;;;5078182;28;20507;-73
2020/12/15 11:06:14;;;;;;;9.23;6.33;;;;;;;;;;5077843;28;20449;-73
2020/12/15 11:08:47;;;;;;;9.10;6.33;;;;;;;;;;5081080;28;20469;-74
2020/12/15 11:11:17;;;;;;;8.80;6.23;;;;;;;;;;5086721;28;20601;-73
2020/12/15 11:13:47;;;;;;;7.80;6.33;;;;;;;;;;5077907;28;21013;-74
2020/12/15 11:16:30;;;;;;;8.50;6.13;;;;;;;;;;5076123;28;20817;-73
2020/12/15 11:18:57;;;;;;;8.93;6.50;;;;;;;;;;5088215;28;20877;-73
2020/12/15 11:21:25;;;;;;;8.03;5.50;;;;;;;;;;5095691;28;20478;-72
2020/12/15 11:23:52;;;;;;;6.03;5.37;;;;;;;;;;5094773;28;20880;-73
2020/12/15 11:26:22;;;;;;;7.13;5.87;;;;;;;;;;5083227;28;20448;-73
2020/12/15 11:28:50;;;;;;;7.30;5.83;;;;;;;;;;5075524;28;20484;-74
2020/12/15 11:31:18;;;;;;;9.17;5.80;;;;;;;;;;5075088;28;20457;-73
2020/12/15 11:33:46;;;;;;;8.40;6.77;;;;;;;;;;5074139;28;20551;-72
2020/12/15 11:36:27;;;;;;;10.33;6.90;;;;;;;;;;5074593;28;20465;-73
2020/12/15 11:39:01;;;;;;;9.50;6.30;;;;;;;;;;5083350;28;20452;-73
2020/12/15 11:41:44;;;;;;;12.50;6.80;;;;;;;;;;5092282;28;20452;-73
2020/12/15 11:44:11;;;;;;;7.53;6.40;;;;;;;;;;5076550;28;20453;-73
2020/12/15 11:46:39;;;;;;;11.23;7.03;;;;;;;;;;5074965;28;20459;-72
2020/12/15 11:49:10;;;;;;;9.00;6.17;;;;;;;;;;5074658;28;21188;-73
2020/12/15 11:51:38;;;;;;;7.30;5.67;;;;;;;;;;5113506;28;20847;-73
2020/12/15 11:54:08;;;;;;;9.70;5.80;;;;;;;;;;5115603;28;20447;-73
2020/12/15 11:56:35;;;;;;;10.00;6.40;;;;;;;;;;5099060;28;20732;-74
2020/12/15 11:59:06;;;;;;;9.80;6.30;;;;;;;;;;5092182;28;20821;-73
2020/12/15 12:01:45;;;;;;;8.10;6.00;;;;;;;;;;5086721;28;20803;-72
2020/12/15 12:04:29;;;;;;;7.77;5.90;;;;;;;;;;5090100;28;20479;-73
2020/12/15 12:06:57;;;;;;;7.50;6.47;;;;;;;;;;5096000;28;20463;-73
2020/12/15 12:09:29;;;;;;;8.90;5.40;;;;;;;;;;5078004;28;20576;-73
2020/12/15 12:11:56;;;;;;;8.27;6.20;;;;;;;;;;5085044;28;20758;-73
2020/12/15 12:14:23;;;;;;;10.73;6.43;;;;;;;;;;5074896;28;20590;-73
2020/12/15 12:16:50;;;;;;;9.20;6.63;;;;;;;;;;5074264;28;20437;-75
2020/12/15 12:19:21;;;;;;;9.70;7.00;;;;;;;;;;5077066;28;20473;-74
2020/12/15 12:21:49;;;;;;;8.57;6.17;;;;;;;;;;5093698;28;20478;-73
2020/12/15 12:24:20;;;;;;;6.73;5.37;;;;;;;;;;5097608;28;20444;-74
2020/12/15 12:26:50;;;;;;;8.83;6.90;;;;;;;;;;5096406;28;20444;-74
2020/12/15 12:29:18;;;;;;;11.33;7.57;;;;;;;;;;5074553;28;20560;-74
2020/12/15 12:31:48;;;;;;;10.60;6.87;;;;;;;;;;5073317;28;20460;-73
2020/12/15 12:34:19;;;;;;;9.50;7.10;;;;;;;;;;5079066;28;20470;-74
2020/12/15 12:36:47;;;;;;;8.60;5.80;;;;;;;;;;5076929;28;20441;-74
2020/12/15 12:39:14;;;;;;;10.30;6.47;;;;;;;;;;5089813;28;20451;-73
2020/12/15 12:41:42;;;;;;;10.10;5.67;;;;;;;;;;5094866;28;20455;-74
2020/12/15 12:44:11;;;;;;;9.73;5.90;;;;;;;;;;5092692;28;20557;-74
2020/12/15 12:46:51;;;;;;;8.53;6.10;;;;;;;;;;5073272;28;20878;-74
2020/12/15 12:49:24;;;;;;;11.80;6.33;;;;;;;;;;5084429;28;20483;-73
2020/12/15 12:52:00;;;;;;;10.10;7.33;;;;;;;;;;5085249;28;20435;-74
2020/12/15 12:54:31;;;;;;;8.33;6.83;;;;;;;;;;5086333;28;20915;-74
2020/12/15 12:57:02;;;;;;;10.97;7.27;;;;;;;;;;5079720;28;20845;-73
2020/12/15 12:59:32;;;;;;;9.33;5.90;;;;;;;;;;5080050;28;20945;-73
2020/12/15 13:02:07;;;;;;;8.60;6.53;;;;;;;;;;5074491;28;20476;-72
2020/12/15 13:04:43;;;;;;;9.27;6.27;;;;;;;;;;5076051;28;20860;-72
2020/12/15 13:07:11;;;;;;;7.93;6.70;;;;;;;;;;5109143;27;20452;-72
2020/12/15 13:09:39;;;;;;;7.90;6.30;;;;;;;;;;5094754;28;20534;-72
2020/12/15 13:12:09;;;;;;;7.15;5.63;;;;;;;;;;5094819;28;20358;-71
2020/12/15 13:14:38;;;;;;;9.00;7.10;;;;;;;;;;5094015;28;20756;-72
2020/12/15 13:17:07;;;;;;;7.70;6.07;;;;;;;;;;5103339;28;20483;-72
2020/12/15 13:19:34;;;;;;;9.70;6.40;;;;;;;;;;5085024;28;20471;-74
2020/12/15 13:22:40;;;;;;;7.87;6.73;;;;;;;;;;5087658;28;20492;-73
2020/12/15 13:25:11;;;;;;;9.80;6.30;;;;;;;;;;5089628;28;20506;-73
2020/12/15 13:27:38;;;;;;;8.00;6.00;;;;;;;;;;5095058;28;20550;-72
2020/12/15 13:30:09;;;;;;;9.53;7.23;;;;;;;;;;5095836;28;20480;-72
2020/12/15 13:32:36;;;;;;;12.27;6.67;;;;;;;;;;5097129;28;20448;-73
2020/12/15 13:35:04;;;;;;;9.50;8.33;;;;;;;;;;5093666;28;20478;-72
2020/12/15 13:37:33;;;;;;;9.67;7.47;;;;;;;;;;5082020;28;20592;-72
2020/12/15 13:40:01;;;;;;;9.07;7.93;;;;;;;;;;5073559;28;20472;-72
2020/12/15 13:42:35;;;;;;;8.47;6.73;;;;;;;;;;5076252;28;20441;-73
2020/12/15 13:45:02;;;;;;;9.03;6.77;;;;;;;;;;5073429;28;20506;-73
2020/12/15 13:47:29;;;;;;;9.07;7.10;;;;;;;;;;5074196;28;20911;-72
2020/12/15 13:49:58;;;;;;;12.27;7.10;;;;;;;;;;5078662;28;20498;-73
2020/12/15 13:52:37;;;;;;;9.90;6.53;;;;;;;;;;5094600;28;20448;-73
2020/12/15 13:55:17;;;;;;;9.10;6.60;;;;;;;;;;5081930;28;20459;-74
2020/12/15 13:57:48;;;;;;;12.63;8.50;;;;;;;;;;5072927;28;20753;-72
2020/12/15 14:00:15;;;;;;;7.53;6.53;;;;;;;;;;5079647;28;20488;-72
2020/12/15 14:02:43;;;;;;;9.63;7.67;;;;;;;;;;5073150;28;20467;-72
2020/12/15 14:05:10;;;;;;;9.87;8.43;;;;;;;;;;5073701;28;20895;-72
2020/12/15 14:07:37;;;;;;;13.30;7.33;;;;;;;;;;5072931;28;20587;-72
2020/12/15 14:10:09;;;;;;;10.93;7.50;;;;;;;;;;5085272;28;20476;-72
2020/12/15 14:12:42;;;;;;;11.30;7.47;;;;;;;;;;5091446;28;20467;-72
2020/12/15 14:15:19;;;;;;;12.60;8.17;;;;;;;;;;5093549;28;20444;-73
2020/12/15 14:17:46;;;;;;;8.30;6.90;;;;;;;;;;5096807;28;20825;-72
2020/12/15 14:20:13;;;;;;;9.30;6.90;;;;;;;;;;5088796;28;20457;-72
2020/12/15 14:22:40;;;;;;;10.00;7.77;;;;;;;;;;5093410;28;20475;-72
2020/12/15 14:25:08;;;;;;;12.20;8.37;;;;;;;;;;5092224;28;20444;-73
2020/12/15 14:27:38;;;;;;;13.43;8.20;;;;;;;;;;5084235;28;20472;-73
2020/12/15 14:30:07;;;;;;;9.40;7.10;;;;;;;;;;5090201;28;20485;-73
2020/12/15 14:32:54;;;;;;;11.53;8.60;;;;;;;;;;5081437;28;20892;-71
2020/12/15 14:35:27;;;;;;;12.63;9.47;;;;;;;;;;5081073;28;21087;-73
2020/12/15 14:37:54;;;;;;;9.50;7.83;;;;;;;;;;5103371;28;20728;-73
2020/12/15 14:40:21;;;;;;;11.30;7.80;;;;;;;;;;5115229;28;20875;-72
2020/12/15 14:42:49;;;;;;;10.20;8.20;;;;;;;;;;5116648;28;20451;-72
2020/12/15 14:45:16;;;;;;;12.00;8.40;;;;;;;;;;5081423;28;20468;-71
2020/12/15 14:47:45;;;;;;;12.97;8.50;;;;;;;;;;5075568;28;20518;-72
2020/12/15 14:50:12;;;;;;;16.67;9.63;;;;;;;;;;5085379;28;20511;-72
2020/12/15 14:52:39;;;;;;;12.20;9.27;;;;;;;;;;5090556;28;20459;-73
2020/12/15 14:55:07;;;;;;;11.90;9.20;;;;;;;;;;5085100;28;20461;-72
2020/12/15 14:57:35;;;;;;;13.57;8.87;;;;;;;;;;5073851;28;20449;-73
2020/12/15 15:00:03;;;;;;;17.17;10.47;;;;;;;;;;5076414;28;20790;-74
2020/12/15 15:02:36;;;;;;;13.23;11.80;;;;;;;;;;5077636;28;20456;-73
2020/12/15 15:05:07;;;;;;;11.23;9.07;;;;;;;;;;5078645;28;20974;-73
2020/12/15 15:07:35;;;;;;;12.50;9.70;;;;;;;;;;5087060;28;20445;-74